»·PEaware :: N612SR KSMO-KCRQ

N612SR :: KSMO-KCRQ

FLIGHT INFORMATION

Flight Status: Arrived
Operator: Privately registered:
United States
More flights under this callsign
Pilot: Rod T. (6553)
Aircraft: CIRRUS SR-22
(SR22)
More flights by this aircraft type
Origin: KSMO Santa Monica Mun
United States
Destination: KCRQ McClellan-Palomar
United States
More flights between these airports :: More routes between these airports
Route: SMO SMO125R V64 V363 DANAH V23 OCN
File this flight plan on PilotEdge
Remarks: TEC Route SMON17
Altitude:
(Current/Filed)
5,000ft
Speed:
(Current/Filed)
180kts
Departed: 12-Apr-17 08:31 PM
Arrived: 12-Apr-17 09:18 PM
Distance/Time
Traveled:
79nm/0:47
Distance/Time
To Go:
Arrived

Flight Plot

Page will automatically refresh every two minutes.


Map Options




Map Legend


Flown Route
Filed Route
Departure Airport
Arrival Airport
Navaid (VOR, NDB)
Fix

Horizontal Profiles

Position Reports

Time Latitude Longitude Heading Altitude Ground
Speed
12-Apr-17 20:17 34.011928 -118.454385 225 178ft 0kts
12-Apr-17 20:18 34.011928 -118.454385 225 178ft 0kts
12-Apr-17 20:19 34.011928 -118.454385 225 178ft 0kts
12-Apr-17 20:20 34.011928 -118.454385 225 178ft 0kts
12-Apr-17 20:21 34.011928 -118.454385 225 178ft 0kts
12-Apr-17 20:22 34.011928 -118.454385 225 178ft 0kts
12-Apr-17 20:23 34.011928 -118.454385 225 178ft 0kts
12-Apr-17 20:24 34.011862 -118.454653 297 178ft 0kts
12-Apr-17 20:25 34.012109 -118.454304 10 178ft 0kts
12-Apr-17 20:26 34.013298 -118.453165 47 178ft 15kts
12-Apr-17 20:27 34.017180 -118.448575 41 178ft 16kts
12-Apr-17 20:28 34.019920 -118.445413 359 178ft 0kts
12-Apr-17 20:29 34.019920 -118.445413 359 178ft 0kts
12-Apr-17 20:30 34.019920 -118.445413 359 178ft 0kts
12-Apr-17 20:31 34.019920 -118.445413 359 178ft 0kts
12-Apr-17 20:32 34.012684 -118.454991 225 444ft 94kts
12-Apr-17 20:33 33.990819 -118.478904 228 1592ft 115kts
12-Apr-17 20:34 33.982507 -118.513610 259 3021ft 105kts
12-Apr-17 20:35 33.981724 -118.551674 261 4215ft 120kts
12-Apr-17 20:36 33.998075 -118.585120 0 5038ft 181kts
12-Apr-17 20:37 34.032565 -118.541968 92 5002ft 198kts
12-Apr-17 20:38 34.035172 -118.477902 108 4996ft 183kts
12-Apr-17 20:39 34.002470 -118.441564 157 5000ft 161kts
12-Apr-17 20:40 33.965839 -118.409022 146 4989ft 165kts
12-Apr-17 20:41 33.930706 -118.373797 146 4988ft 164kts
12-Apr-17 20:42 33.895849 -118.338779 146 4991ft 164kts
12-Apr-17 20:43 33.860751 -118.303614 146 4994ft 165kts
12-Apr-17 20:44 33.825337 -118.268219 146 4993ft 165kts
12-Apr-17 20:45 33.790055 -118.232937 146 4985ft 164kts
12-Apr-17 20:46 33.777775 -118.181499 92 4985ft 183kts
12-Apr-17 20:47 33.758726 -118.133170 137 4994ft 167kts
12-Apr-17 20:48 33.729883 -118.088786 133 4993ft 170kts
12-Apr-17 20:49 33.701398 -118.043459 133 4993ft 170kts
12-Apr-17 20:50 33.673258 -117.998692 133 4993ft 170kts
12-Apr-17 20:51 33.644729 -117.953205 134 4993ft 171kts
12-Apr-17 20:52 33.616170 -117.907836 134 4993ft 171kts
12-Apr-17 20:53 33.587375 -117.862169 134 4993ft 171kts
12-Apr-17 20:54 33.558666 -117.816685 134 4993ft 171kts
12-Apr-17 20:55 33.530000 -117.771327 134 4993ft 171kts
12-Apr-17 20:56 33.501360 -117.726065 134 4993ft 171kts
12-Apr-17 20:57 33.470848 -117.682750 142 4993ft 168kts
12-Apr-17 20:58 33.437307 -117.643736 142 4992ft 168kts
12-Apr-17 20:59 33.403981 -117.604752 142 4992ft 168kts
12-Apr-17 21:00 33.370708 -117.565864 142 4992ft 167kts
12-Apr-17 21:01 33.337323 -117.526881 142 4992ft 167kts
12-Apr-17 21:02 33.304084 -117.488131 142 4992ft 167kts
12-Apr-17 21:03 33.270707 -117.449232 142 4983ft 168kts
12-Apr-17 21:04 33.237504 -117.409942 131 4978ft 172kts
12-Apr-17 21:05 33.238806 -117.349072 91 4982ft 187kts
12-Apr-17 21:06 33.243713 -117.285499 91 4525ft 202kts
12-Apr-17 21:07 33.248644 -117.217887 91 3969ft 198kts
12-Apr-17 21:08 33.250306 -117.156417 91 3488ft 167kts
12-Apr-17 21:09 33.249887 -117.106498 91 3480ft 139kts
12-Apr-17 21:10 33.229809 -117.073185 140 3482ft 128kts
12-Apr-17 21:11 33.202617 -117.046115 142 3482ft 125kts
12-Apr-17 21:12 33.174429 -117.061327 220 3510ft 124kts
12-Apr-17 21:13 33.157965 -117.095425 259 3455ft 124kts
12-Apr-17 21:14 33.151861 -117.133568 259 2825ft 112kts
12-Apr-17 21:15 33.146065 -117.169641 259 2198ft 109kts
12-Apr-17 21:16 33.140395 -117.204490 257 1571ft 103kts
12-Apr-17 21:17 33.135378 -117.236153 259 1013ft 93kts
12-Apr-17 21:18 33.130419 -117.266719 258 499ft 83kts
12-Apr-17 21:19 33.127366 -117.282689 187 333ft 8kts
12-Apr-17 21:20 33.127081 -117.282337 87 333ft 16kts
12-Apr-17 21:21 33.125569 -117.279600 107 333ft 7kts
12-Apr-17 21:22 33.125389 -117.279203 261 333ft 0kts

Navigation Log

Ident Type
Flight plan parsing failed, navigation log unavailable